sensor_id;sensor_type;location;lat;lon;timestamp;pressure;altitude;pressure_sealevel;temperature;humidity
36092;BME280;22147;52.388;13.390;2024-02-26T00:01:06;99679.53;;;-1.74;100.00
36092;BME280;22147;52.388;13.390;2024-02-26T00:03:37;99683.06;;;-1.74;100.00
36092;BME280;22147;52.388;13.390;2024-02-26T00:06:08;99680.88;;;-1.72;100.00
36092;BME280;22147;52.388;13.390;2024-02-26T00:08:39;99683.91;;;-1.73;100.00
36092;BME280;22147;52.388;13.390;2024-02-26T00:11:09;99682.53;;;-1.76;100.00
36092;BME280;22147;52.388;13.390;2024-02-26T00:13:40;99680.63;;;-1.80;100.00
36092;BME280;22147;52.388;13.390;2024-02-26T00:16:10;99676.25;;;-1.87;100.00
36092;BME280;22147;52.388;13.390;2024-02-26T00:18:40;99675.47;;;-1.92;100.00
36092;BME280;22147;52.388;13.390;2024-02-26T00:21:12;99673.56;;;-1.97;100.00
36092;BME280;22147;52.388;13.390;2024-02-26T00:23:42;99672.47;;;-2.01;100.00
36092;BME280;22147;52.388;13.390;2024-02-26T00:26:10;99667.00;;;-2.06;100.00
36092;BME280;22147;52.388;13.390;2024-02-26T00:28:41;99663.97;;;-2.10;100.00
36092;BME280;22147;52.388;13.390;2024-02-26T00:31:09;99665.09;;;-2.16;100.00
36092;BME280;22147;52.388;13.390;2024-02-26T00:33:39;99659.34;;;-2.19;100.00
36092;BME280;22147;52.388;13.390;2024-02-26T00:36:10;99653.09;;;-2.25;100.00
36092;BME280;22147;52.388;13.390;2024-02-26T00:38:41;99657.72;;;-2.26;100.00
36092;BME280;22147;52.388;13.390;2024-02-26T00:41:12;99652.00;;;-2.29;100.00
36092;BME280;22147;52.388;13.390;2024-02-26T00:43:43;99648.16;;;-2.33;100.00
36092;BME280;22147;52.388;13.390;2024-02-26T00:46:13;99648.44;;;-2.40;100.00
36092;BME280;22147;52.388;13.390;2024-02-26T00:48:43;99645.41;;;-2.43;100.00
36092;BME280;22147;52.388;13.390;2024-02-26T00:51:14;99642.44;;;-2.47;100.00
36092;BME280;22147;52.388;13.390;2024-02-26T00:53:45;99644.63;;;-2.49;100.00
36092;BME280;22147;52.388;13.390;2024-02-26T00:56:15;99641.84;;;-2.54;100.00
36092;BME280;22147;52.388;13.390;2024-02-26T00:58:46;99646.19;;;-2.58;100.00
36092;BME280;22147;52.388;13.390;2024-02-26T01:01:17;99656.81;;;-2.62;100.00
36092;BME280;22147;52.388;13.390;2024-02-26T01:03:47;99652.72;;;-2.59;100.00
36092;BME280;22147;52.388;13.390;2024-02-26T01:06:17;99645.38;;;-2.59;100.00
36092;BME280;22147;52.388;13.390;2024-02-26T01:08:48;99638.03;;;-2.63;100.00
36092;BME280;22147;52.388;13.390;2024-02-26T01:11:18;99645.66;;;-2.66;100.00
36092;BME280;22147;52.388;13.390;2024-02-26T01:13:48;99625.50;;;-2.70;100.00
36092;BME280;22147;52.388;13.390;2024-02-26T01:16:23;99630.66;;;-2.73;100.00
36092;BME280;22147;52.388;13.390;2024-02-26T01:18:54;99633.66;;;-2.75;100.00
36092;BME280;22147;52.388;13.390;2024-02-26T01:21:24;99629.56;;;-2.77;100.00
36092;BME280;22147;52.388;13.390;2024-02-26T01:23:54;99628.19;;;-2.80;100.00
36092;BME280;22147;52.388;13.390;2024-02-26T01:26:24;99629.53;;;-2.82;100.00
36092;BME280;22147;52.388;13.390;2024-02-26T01:28:55;99633.38;;;-2.83;100.00
36092;BME280;22147;52.388;13.390;2024-02-26T01:31:25;99630.34;;;-2.87;100.00
36092;BME280;22147;52.388;13.390;2024-02-26T01:33:55;99638.22;;;-2.91;100.00
36092;BME280;22147;52.388;13.390;2024-02-26T01:36:26;99631.94;;;-2.96;100.00
36092;BME280;22147;52.388;13.390;2024-02-26T01:38:56;99627.59;;;-2.97;100.00
36092;BME280;22147;52.388;13.390;2024-02-26T01:41:27;99630.31;;;-2.97;100.00
36092;BME280;22147;52.388;13.390;2024-02-26T01:43:57;99624.31;;;-2.99;100.00
36092;BME280;22147;52.388;13.390;2024-02-26T01:46:29;99631.91;;;-3.01;100.00
36092;BME280;22147;52.388;13.390;2024-02-26T01:49:02;99634.88;;;-3.03;100.00
36092;BME280;22147;52.388;13.390;2024-02-26T01:51:35;99635.44;;;-3.06;100.00
36092;BME280;22147;52.388;13.390;2024-02-26T01:54:07;99628.34;;;-3.07;100.00
36092;BME280;22147;52.388;13.390;2024-02-26T01:56:40;99635.94;;;-3.09;100.00
36092;BME280;22147;52.388;13.390;2024-02-26T01:59:12;99635.69;;;-3.13;100.00
36092;BME280;22147;52.388;13.390;2024-02-26T02:01:51;99637.03;;;-3.15;100.00
36092;BME280;22147;52.388;13.390;2024-02-26T02:04:25;99645.44;;;-3.17;100.00
36092;BME280;22147;52.388;13.390;2024-02-26T02:06:58;99647.84;;;-3.20;100.00
36092;BME280;22147;52.388;13.390;2024-02-26T02:09:30;99637.22;;;-3.22;100.00
36092;BME280;22147;52.388;13.390;2024-02-26T02:12:00;99645.66;;;-3.23;100.00
36092;BME280;22147;52.388;13.390;2024-02-26T02:14:30;99635.31;;;-3.27;100.00
36092;BME280;22147;52.388;13.390;2024-02-26T02:17:00;99637.47;;;-3.29;100.00
36092;BME280;22147;52.388;13.390;2024-02-26T02:19:30;99637.22;;;-3.32;100.00
36092;BME280;22147;52.388;13.390;2024-02-26T02:22:01;99631.22;;;-3.34;100.00
36092;BME280;22147;52.388;13.390;2024-02-26T02:24:31;99638.28;;;-3.33;100.00
36092;BME280;22147;52.388;13.390;2024-02-26T02:27:01;99644.25;;;-3.31;100.00
36092;BME280;22147;52.388;13.390;2024-02-26T02:29:32;99637.75;;;-3.30;100.00
36092;BME280;22147;52.388;13.390;2024-02-26T02:32:04;99640.19;;;-3.29;100.00
36092;BME280;22147;52.388;13.390;2024-02-26T02:34:35;99642.66;;;-3.22;100.00
36092;BME280;22147;52.388;13.390;2024-02-26T02:37:06;99642.53;;;-2.95;100.00
36092;BME280;22147;52.388;13.390;2024-02-26T02:39:36;99646.69;;;-2.77;100.00
36092;BME280;22147;52.388;13.390;2024-02-26T02:42:06;99641.06;;;-2.60;100.00
36092;BME280;22147;52.388;13.390;2024-02-26T02:44:37;99638.59;;;-2.56;100.00
36092;BME280;22147;52.388;13.390;2024-02-26T02:47:07;99638.59;;;-2.56;100.00
36092;BME280;22147;52.388;13.390;2024-02-26T02:49:37;99641.84;;;-2.59;100.00
36092;BME280;22147;52.388;13.390;2024-02-26T02:52:08;99639.41;;;-2.61;100.00
36092;BME280;22147;52.388;13.390;2024-02-26T02:54:39;99641.31;;;-2.67;100.00
36092;BME280;22147;52.388;13.390;2024-02-26T02:57:11;99634.75;;;-2.71;100.00
36092;BME280;22147;52.388;13.390;2024-02-26T02:59:43;99640.19;;;-2.71;100.00
36092;BME280;22147;52.388;13.390;2024-02-26T03:02:13;99630.41;;;-2.72;100.00
36092;BME280;22147;52.388;13.390;2024-02-26T03:04:43;99641.00;;;-2.70;100.00
36092;BME280;22147;52.388;13.390;2024-02-26T03:07:14;99638.56;;;-2.72;100.00
36092;BME280;22147;52.388;13.390;2024-02-26T03:09:44;99641.31;;;-2.67;100.00
36092;BME280;22147;52.388;13.390;2024-02-26T03:12:14;99638.84;;;-2.68;100.00
36092;BME280;22147;52.388;13.390;2024-02-26T03:14:45;99641.00;;;-2.70;100.00
36092;BME280;22147;52.388;13.390;2024-02-26T03:17:15;99633.38;;;-2.73;100.00
36092;BME280;22147;52.388;13.390;2024-02-26T03:19:45;99634.47;;;-2.74;100.00
36092;BME280;22147;52.388;13.390;2024-02-26T03:22:16;99637.44;;;-2.76;100.00
36092;BME280;22147;52.388;13.390;2024-02-26T03:24:47;99635.28;;;-2.79;100.00
36092;BME280;22147;52.388;13.390;2024-02-26T03:27:18;99636.88;;;-2.83;100.00
36092;BME280;22147;52.388;13.390;2024-02-26T03:29:48;99631.41;;;-2.88;100.00
36092;BME280;22147;52.388;13.390;2024-02-26T03:32:18;99631.97;;;-2.91;100.00
36092;BME280;22147;52.388;13.390;2024-02-26T03:34:49;99630.31;;;-2.92;100.00
36092;BME280;22147;52.388;13.390;2024-02-26T03:37:19;99628.94;;;-2.95;100.00
36092;BME280;22147;52.388;13.390;2024-02-26T03:39:49;99629.25;;;-2.96;100.00
36092;BME280;22147;52.388;13.390;2024-02-26T03:42:20;99640.63;;;-2.99;100.00
36092;BME280;22147;52.388;13.390;2024-02-26T03:44:50;99640.59;;;-3.04;100.00
36092;BME280;22147;52.388;13.390;2024-02-26T03:47:20;99643.03;;;-3.03;100.00
36092;BME280;22147;52.388;13.390;2024-02-26T03:49:50;99646.59;;;-3.02;100.00
36092;BME280;22147;52.388;13.390;2024-02-26T03:52:21;99648.75;;;-3.04;100.00
36092;BME280;22147;52.388;13.390;2024-02-26T03:54:51;99641.66;;;-3.11;100.00
36092;BME280;22147;52.388;13.390;2024-02-26T03:57:21;99652.22;;;-3.14;100.00
36092;BME280;22147;52.388;13.390;2024-02-26T03:59:51;99651.66;;;-3.16;100.00
36092;BME280;22147;52.388;13.390;2024-02-26T04:02:21;99651.13;;;-3.18;100.00
36092;BME280;22147;52.388;13.390;2024-02-26T04:04:53;99656.00;;;-3.20;100.00
36092;BME280;22147;52.388;13.390;2024-02-26T04:07:23;99656.00;;;-3.20;100.00
36092;BME280;22147;52.388;13.390;2024-02-26T04:09:53;99651.66;;;-3.21;100.00
36092;BME280;22147;52.388;13.390;2024-02-26T04:12:23;99656.25;;;-3.22;100.00
36092;BME280;22147;52.388;13.390;2024-02-26T04:14:54;99653.81;;;-3.23;100.00
36092;BME280;22147;52.388;13.390;2024-02-26T04:17:24;99644.81;;;-3.24;100.00
36092;BME280;22147;52.388;13.390;2024-02-26T04:19:52;99651.34;;;-3.25;100.00
36092;BME280;22147;52.388;13.390;2024-02-26T04:22:22;99651.66;;;-3.21;100.00
36092;BME280;22147;52.388;13.390;2024-02-26T04:24:50;99661.69;;;-3.22;100.00
36092;BME280;22147;52.388;13.390;2024-02-26T04:27:20;99657.59;;;-3.24;100.00
36092;BME280;22147;52.388;13.390;2024-02-26T04:29:50;99667.91;;;-3.27;100.00
36092;BME280;22147;52.388;13.390;2024-02-26T04:32:19;99663.00;;;-3.30;100.00
36092;BME280;22147;52.388;13.390;2024-02-26T04:34:47;99675.78;;;-3.30;100.00
36092;BME280;22147;52.388;13.390;2024-02-26T04:37:16;99677.66;;;-3.31;100.00
36092;BME280;22147;52.388;13.390;2024-02-26T04:39:44;99683.94;;;-3.30;100.00
36092;BME280;22147;52.388;13.390;2024-02-26T04:42:19;99679.31;;;-3.30;100.00
36092;BME280;22147;52.388;13.390;2024-02-26T04:44:49;99683.63;;;-3.34;100.00
36092;BME280;22147;52.388;13.390;2024-02-26T04:47:20;99684.69;;;-3.35;100.00
36092;BME280;22147;52.388;13.390;2024-02-26T04:49:52;99682.53;;;-3.33;100.00
36092;BME280;22147;52.388;13.390;2024-02-26T04:52:22;99688.81;;;-3.32;100.00
36092;BME280;22147;52.388;13.390;2024-02-26T04:54:53;99686.91;;;-3.32;100.00
36092;BME280;22147;52.388;13.390;2024-02-26T04:57:24;99685.25;;;-3.33;100.00
36092;BME280;22147;52.388;13.390;2024-02-26T04:59:54;99684.44;;;-3.33;100.00
36092;BME280;22147;52.388;13.390;2024-02-26T05:02:25;99683.63;;;-3.34;100.00
36092;BME280;22147;52.388;13.390;2024-02-26T05:04:55;99687.41;;;-3.35;100.00
36092;BME280;22147;52.388;13.390;2024-02-26T05:07:26;99689.88;;;-3.33;100.00
36092;BME280;22147;52.388;13.390;2024-02-26T05:09:56;99697.19;;;-3.34;100.00
36092;BME280;22147;52.388;13.390;2024-02-26T05:12:26;99698.81;;;-3.33;100.00
36092;BME280;22147;52.388;13.390;2024-02-26T05:14:56;99700.72;;;-3.33;100.00
36092;BME280;22147;52.388;13.390;2024-02-26T05:17:27;99709.97;;;-3.34;100.00
36092;BME280;22147;52.388;13.390;2024-02-26T05:19:57;99709.97;;;-3.34;100.00
36092;BME280;22147;52.388;13.390;2024-02-26T05:22:27;99709.97;;;-3.34;100.00
36092;BME280;22147;52.388;13.390;2024-02-26T05:24:57;99719.19;;;-3.35;100.00
36092;BME280;22147;52.388;13.390;2024-02-26T05:27:28;99712.13;;;-3.36;100.00
36092;BME280;22147;52.388;13.390;2024-02-26T05:29:58;99723.78;;;-3.36;100.00
36092;BME280;22147;52.388;13.390;2024-02-26T05:32:28;99713.75;;;-3.35;100.00
36092;BME280;22147;52.388;13.390;2024-02-26T05:34:58;99717.81;;;-3.38;100.00
36092;BME280;22147;52.388;13.390;2024-02-26T05:37:29;99717.00;;;-3.38;100.00
36092;BME280;22147;52.388;13.390;2024-02-26T05:40:00;99721.59;;;-3.39;100.00
36092;BME280;22147;52.388;13.390;2024-02-26T05:42:30;99716.44;;;-3.40;100.00
36092;BME280;22147;52.388;13.390;2024-02-26T05:45:00;99712.88;;;-3.41;100.00
36092;BME280;22147;52.388;13.390;2024-02-26T05:47:36;99718.59;;;-3.42;100.00
36092;BME280;22147;52.388;13.390;2024-02-26T05:50:13;99724.59;;;-3.40;100.00
36092;BME280;22147;52.388;13.390;2024-02-26T05:52:44;99727.56;;;-3.42;100.00
36092;BME280;22147;52.388;13.390;2024-02-26T05:55:14;99731.06;;;-3.41;100.00
36092;BME280;22147;52.388;13.390;2024-02-26T05:57:45;99729.44;;;-3.42;100.00
36092;BME280;22147;52.388;13.390;2024-02-26T06:00:15;99731.88;;;-3.41;100.00
36092;BME280;22147;52.388;13.390;2024-02-26T06:02:46;99731.06;;;-3.41;100.00
36092;BME280;22147;52.388;13.390;2024-02-26T06:05:16;99741.44;;;-3.38;100.00
36092;BME280;22147;52.388;13.390;2024-02-26T06:07:46;99741.16;;;-3.37;100.00
36092;BME280;22147;52.388;13.390;2024-02-26T06:10:17;99737.63;;;-3.37;100.00
36092;BME280;22147;52.388;13.390;2024-02-26T06:12:51;99741.72;;;-3.35;100.00
36092;BME280;22147;52.388;13.390;2024-02-26T06:15:21;99750.19;;;-3.26;100.00
36092;BME280;22147;52.388;13.390;2024-02-26T06:17:51;99745.13;;;-3.17;100.00
36092;BME280;22147;52.388;13.390;2024-02-26T06:20:22;99748.16;;;-3.09;100.00
36092;BME280;22147;52.388;13.390;2024-02-26T06:22:52;99749.84;;;-3.02;100.00
36092;BME280;22147;52.388;13.390;2024-02-26T06:25:22;99748.00;;;-2.92;100.00
36092;BME280;22147;52.388;13.390;2024-02-26T06:27:52;99761.38;;;-2.80;100.00
36092;BME280;22147;52.388;13.390;2024-02-26T06:30:23;99764.22;;;-2.59;100.00
36092;BME280;22147;52.388;13.390;2024-02-26T06:32:53;99760.19;;;-2.47;100.00
36092;BME280;22147;52.388;13.390;2024-02-26T06:35:23;99766.22;;;-2.34;100.00
36092;BME280;22147;52.388;13.390;2024-02-26T06:37:54;99769.00;;;-2.19;100.00
36092;BME280;22147;52.388;13.390;2024-02-26T06:40:24;99780.22;;;-2.05;100.00
36092;BME280;22147;52.388;13.390;2024-02-26T06:42:52;99775.88;;;-1.91;100.00
36092;BME280;22147;52.388;13.390;2024-02-26T06:45:22;99771.84;;;-1.73;100.00
36092;BME280;22147;52.388;13.390;2024-02-26T06:47:51;99779.47;;;-1.65;100.00
36092;BME280;22147;52.388;13.390;2024-02-26T06:50:22;99779.22;;;-1.58;100.00
36092;BME280;22147;52.388;13.390;2024-02-26T06:52:52;99780.59;;;-1.50;100.00
36092;BME280;22147;52.388;13.390;2024-02-26T06:55:22;99781.69;;;-1.41;100.00
36092;BME280;22147;52.388;13.390;2024-02-26T06:57:52;99786.84;;;-1.34;100.00
36092;BME280;22147;52.388;13.390;2024-02-26T07:00:23;99784.66;;;-1.27;100.00
36092;BME280;22147;52.388;13.390;2024-02-26T07:02:53;99792.84;;;-1.22;100.00
36092;BME280;22147;52.388;13.390;2024-02-26T07:05:23;99788.50;;;-1.18;100.00
36092;BME280;22147;52.388;13.390;2024-02-26T07:07:54;99792.84;;;-1.12;100.00
36092;BME280;22147;52.388;13.390;2024-02-26T07:10:24;99789.84;;;-1.05;100.00
36092;BME280;22147;52.388;13.390;2024-02-26T07:12:54;99792.56;;;-0.95;100.00
36092;BME280;22147;52.388;13.390;2024-02-26T07:15:24;99798.28;;;-0.86;100.00
36092;BME280;22147;52.388;13.390;2024-02-26T07:17:55;99797.72;;;-0.78;100.00
36092;BME280;22147;52.388;13.390;2024-02-26T07:20:25;99791.41;;;-0.68;100.00
36092;BME280;22147;52.388;13.390;2024-02-26T07:22:54;99794.41;;;-0.59;100.00
36092;BME280;22147;52.388;13.390;2024-02-26T07:25:22;99789.50;;;-0.52;100.00
36092;BME280;22147;52.388;13.390;2024-02-26T07:27:53;99796.00;;;-0.38;100.00
36092;BME280;22147;52.388;13.390;2024-02-26T07:30:22;99801.41;;;-0.28;100.00
36092;BME280;22147;52.388;13.390;2024-02-26T07:32:50;99803.53;;;-0.14;100.00
36092;BME280;22147;52.388;13.390;2024-02-26T07:35:19;99807.59;;;-0.07;100.00
36092;BME280;22147;52.388;13.390;2024-02-26T07:37:50;99806.69;;;0.08;100.00
36092;BME280;22147;52.388;13.390;2024-02-26T07:40:20;99800.41;;;0.13;100.00
36092;BME280;22147;52.388;13.390;2024-02-26T07:42:51;99808.00;;;0.21;100.00
36092;BME280;22147;52.388;13.390;2024-02-26T07:45:22;99800.28;;;0.33;100.00
36092;BME280;22147;52.388;13.390;2024-02-26T07:47:52;99796.03;;;0.56;100.00
36092;BME280;22147;52.388;13.390;2024-02-26T07:50:22;99801.91;;;0.74;100.00
36092;BME280;22147;52.388;13.390;2024-02-26T07:52:52;99808.44;;;0.83;100.00
36092;BME280;22147;52.388;13.390;2024-02-26T07:55:23;99802.53;;;1.00;100.00
36092;BME280;22147;52.388;13.390;2024-02-26T07:57:54;99804.94;;;1.07;100.00
36092;BME280;22147;52.388;13.390;2024-02-26T08:00:24;99798.84;;;1.15;100.00
36092;BME280;22147;52.388;13.390;2024-02-26T08:02:54;99806.13;;;1.25;100.00
36092;BME280;22147;52.388;13.390;2024-02-26T08:05:24;99804.69;;;1.32;100.00
36092;BME280;22147;52.388;13.390;2024-02-26T08:07:55;99807.34;;;1.42;100.00
36092;BME280;22147;52.388;13.390;2024-02-26T08:10:27;99812.41;;;1.54;100.00
36092;BME280;22147;52.388;13.390;2024-02-26T08:13:02;99816.44;;;1.62;100.00
36092;BME280;22147;52.388;13.390;2024-02-26T08:15:36;99815.78;;;1.70;100.00
36092;BME280;22147;52.388;13.390;2024-02-26T08:18:09;99819.16;;;1.86;100.00
36092;BME280;22147;52.388;13.390;2024-02-26T08:20:39;99813.44;;;2.07;100.00
36092;BME280;22147;52.388;13.390;2024-02-26T08:23:10;99817.78;;;2.32;100.00
36092;BME280;22147;52.388;13.390;2024-02-26T08:25:40;99809.94;;;2.63;100.00
36092;BME280;22147;52.388;13.390;2024-02-26T08:28:11;99804.44;;;2.82;100.00
36092;BME280;22147;52.388;13.390;2024-02-26T08:30:43;99813.34;;;3.06;100.00
36092;BME280;22147;52.388;13.390;2024-02-26T08:33:14;99807.00;;;3.25;100.00
36092;BME280;22147;52.388;13.390;2024-02-26T08:35:45;99810.38;;;3.36;100.00
36092;BME280;22147;52.388;13.390;2024-02-26T08:38:15;99815.78;;;3.41;100.00
36092;BME280;22147;52.388;13.390;2024-02-26T08:40:45;99813.03;;;3.55;100.00
36092;BME280;22147;52.388;13.390;2024-02-26T08:43:16;99811.22;;;3.78;100.00
36092;BME280;22147;52.388;13.390;2024-02-26T08:45:46;99815.69;;;4.01;100.00
36092;BME280;22147;52.388;13.390;2024-02-26T08:48:16;99809.72;;;4.36;100.00
36092;BME280;22147;52.388;13.390;2024-02-26T08:50:47;99807.41;;;4.65;100.00
36092;BME280;22147;52.388;13.390;2024-02-26T08:53:17;99807.56;;;4.83;100.00
36092;BME280;22147;52.388;13.390;2024-02-26T08:56:00;99812.91;;;5.02;100.00
36092;BME280;22147;52.388;13.390;2024-02-26T08:58:31;99813.38;;;5.26;100.00
36092;BME280;22147;52.388;13.390;2024-02-26T09:01:01;99802.44;;;5.44;100.00
36092;BME280;22147;52.388;13.390;2024-02-26T09:03:32;99809.34;;;5.64;100.00
36092;BME280;22147;52.388;13.390;2024-02-26T09:06:02;99805.91;;;5.58;100.00
36092;BME280;22147;52.388;13.390;2024-02-26T09:08:33;99808.78;;;5.44;100.00
36092;BME280;22147;52.388;13.390;2024-02-26T09:11:05;99808.69;;;5.04;100.00
36092;BME280;22147;52.388;13.390;2024-02-26T09:13:36;99805.94;;;5.04;100.00
36092;BME280;22147;52.388;13.390;2024-02-26T09:16:07;99811.00;;;5.11;100.00
36092;BME280;22147;52.388;13.390;2024-02-26T09:18:37;99819.44;;;4.92;100.00
36092;BME280;22147;52.388;13.390;2024-02-26T09:21:07;99818.97;;;5.13;100.00
36092;BME280;22147;52.388;13.390;2024-02-26T09:23:38;99818.81;;;5.40;100.00
36092;BME280;22147;52.388;13.390;2024-02-26T09:26:08;99815.94;;;5.54;100.00
36092;BME280;22147;52.388;13.390;2024-02-26T09:28:39;99821.97;;;5.65;100.00
36092;BME280;22147;52.388;13.390;2024-02-26T09:31:09;99824.94;;;6.08;100.00
36092;BME280;22147;52.388;13.390;2024-02-26T09:33:39;99818.06;;;6.46;100.00
36092;BME280;22147;52.388;13.390;2024-02-26T09:36:10;99825.06;;;6.69;100.00
36092;BME280;22147;52.388;13.390;2024-02-26T09:38:43;99831.72;;;6.86;100.00
36092;BME280;22147;52.388;13.390;2024-02-26T09:41:29;99831.72;;;7.03;100.00
36092;BME280;22147;52.388;13.390;2024-02-26T09:44:04;99833.81;;;7.06;100.00
36092;BME280;22147;52.388;13.390;2024-02-26T09:46:34;99827.31;;;7.20;100.00
36092;BME280;22147;52.388;13.390;2024-02-26T09:49:06;99822.88;;;7.36;100.00
36092;BME280;22147;52.388;13.390;2024-02-26T09:51:39;99826.31;;;7.33;98.28
36092;BME280;22147;52.388;13.390;2024-02-26T09:54:11;99824.22;;;7.12;100.00
36092;BME280;22147;52.388;13.390;2024-02-26T09:56:48;99824.22;;;7.21;100.00
36092;BME280;22147;52.388;13.390;2024-02-26T09:59:39;99827.59;;;7.36;98.42
36092;BME280;22147;52.388;13.390;2024-02-26T10:02:13;99829.22;;;7.45;97.80
36092;BME280;22147;52.388;13.390;2024-02-26T10:04:47;99830.81;;;7.55;97.09
36092;BME280;22147;52.388;13.390;2024-02-26T10:07:22;99830.63;;;7.60;98.15
36092;BME280;22147;52.388;13.390;2024-02-26T10:09:53;99827.72;;;7.57;98.15
36092;BME280;22147;52.388;13.390;2024-02-26T10:12:23;99835.38;;;7.89;95.11
36092;BME280;22147;52.388;13.390;2024-02-26T10:14:57;99830.84;;;7.85;96.00
36092;BME280;22147;52.388;13.390;2024-02-26T10:17:28;99827.94;;;7.90;96.07
36092;BME280;22147;52.388;13.390;2024-02-26T10:20:18;99833.13;;;8.21;94.02
36092;BME280;22147;52.388;13.390;2024-02-26T10:22:52;99835.97;;;8.42;90.25
36092;BME280;22147;52.388;13.390;2024-02-26T10:25:22;99838.38;;;8.73;88.62
36092;BME280;22147;52.388;13.390;2024-02-26T10:27:53;99834.31;;;8.92;87.44
36092;BME280;22147;52.388;13.390;2024-02-26T10:30:23;99845.38;;;9.13;83.78
36092;BME280;22147;52.388;13.390;2024-02-26T10:32:56;99848.13;;;9.34;80.25
36092;BME280;22147;52.388;13.390;2024-02-26T10:35:27;99842.00;;;9.07;80.86
36092;BME280;22147;52.388;13.390;2024-02-26T10:37:59;99842.38;;;9.51;80.15
36092;BME280;22147;52.388;13.390;2024-02-26T10:40:29;99849.50;;;9.86;76.68
36092;BME280;22147;52.388;13.390;2024-02-26T10:42:59;99844.41;;;9.75;76.89
36092;BME280;22147;52.388;13.390;2024-02-26T10:45:32;99837.59;;;9.73;75.38
36092;BME280;22147;52.388;13.390;2024-02-26T10:48:13;99843.69;;;9.66;76.80
36092;BME280;22147;52.388;13.390;2024-02-26T10:50:45;99839.88;;;9.71;76.56
36092;BME280;22147;52.388;13.390;2024-02-26T10:53:20;99848.47;;;10.03;75.59
36092;BME280;22147;52.388;13.390;2024-02-26T10:56:04;99842.28;;;10.30;71.67
36092;BME280;22147;52.388;13.390;2024-02-26T10:58:37;99838.81;;;10.33;71.46
36092;BME280;22147;52.388;13.390;2024-02-26T11:01:10;99839.25;;;10.23;70.54
36092;BME280;22147;52.388;13.390;2024-02-26T11:03:43;99835.19;;;9.96;72.69
36092;BME280;22147;52.388;13.390;2024-02-26T11:06:15;99839.69;;;10.01;73.17
36092;BME280;22147;52.388;13.390;2024-02-26T11:08:49;99834.50;;;10.11;72.18
36092;BME280;22147;52.388;13.390;2024-02-26T11:11:25;99833.44;;;10.28;69.82
36092;BME280;22147;52.388;13.390;2024-02-26T11:13:57;99840.63;;;10.17;69.41
36092;BME280;22147;52.388;13.390;2024-02-26T11:16:30;99836.72;;;10.30;70.34
36092;BME280;22147;52.388;13.390;2024-02-26T11:19:02;99833.59;;;10.32;69.82
36092;BME280;22147;52.388;13.390;2024-02-26T11:21:33;99835.59;;;10.31;71.95
36092;BME280;22147;52.388;13.390;2024-02-26T11:24:15;99833.00;;;10.26;72.77
36092;BME280;22147;52.388;13.390;2024-02-26T11:26:54;99844.25;;;10.30;71.03
36092;BME280;22147;52.388;13.390;2024-02-26T11:29:42;99831.59;;;10.20;71.66
36092;BME280;22147;52.388;13.390;2024-02-26T11:32:17;99836.72;;;10.30;71.68
36092;BME280;22147;52.388;13.390;2024-02-26T11:34:48;99842.56;;;9.92;70.19
36092;BME280;22147;52.388;13.390;2024-02-26T11:37:20;99835.66;;;10.10;68.30
36092;BME280;22147;52.388;13.390;2024-02-26T11:39:52;99833.22;;;10.09;68.38
36092;BME280;22147;52.388;13.390;2024-02-26T11:42:24;99831.97;;;10.18;66.88
36092;BME280;22147;52.388;13.390;2024-02-26T11:44:55;99834.81;;;9.73;70.32
36092;BME280;22147;52.388;13.390;2024-02-26T11:47:34;99831.09;;;9.69;70.02
36092;BME280;22147;52.388;13.390;2024-02-26T11:50:39;99832.50;;;9.75;71.38
36092;BME280;22147;52.388;13.390;2024-02-26T11:53:46;99829.31;;;9.97;70.11
36092;BME280;22147;52.388;13.390;2024-02-26T11:58:57;99833.25;;;10.21;69.17
36092;BME280;22147;52.388;13.390;2024-02-26T12:01:54;99831.28;;;9.97;69.16
36092;BME280;22147;52.388;13.390;2024-02-26T12:04:29;99831.63;;;9.95;68.55
36092;BME280;22147;52.388;13.390;2024-02-26T12:07:03;99823.16;;;9.92;67.57
36092;BME280;22147;52.388;13.390;2024-02-26T12:09:41;99824.22;;;9.99;65.70
36092;BME280;22147;52.388;13.390;2024-02-26T12:12:18;99824.19;;;9.75;67.37
36092;BME280;22147;52.388;13.390;2024-02-26T12:14:56;99828.03;;;9.83;65.88
36092;BME280;22147;52.388;13.390;2024-02-26T12:17:27;99811.81;;;9.72;67.21
36092;BME280;22147;52.388;13.390;2024-02-26T12:20:10;99829.88;;;9.91;66.28
36092;BME280;22147;52.388;13.390;2024-02-26T12:22:47;99817.41;;;9.97;66.76
36092;BME280;22147;52.388;13.390;2024-02-26T12:25:27;99839.22;;;9.98;66.29
36092;BME280;22147;52.388;13.390;2024-02-26T12:28:00;99835.06;;;9.80;69.13
36092;BME280;22147;52.388;13.390;2024-02-26T12:30:31;99837.59;;;9.85;68.30
36092;BME280;22147;52.388;13.390;2024-02-26T12:33:02;99839.59;;;9.97;66.16
36092;BME280;22147;52.388;13.390;2024-02-26T12:35:34;99845.22;;;9.88;65.24
36092;BME280;22147;52.388;13.390;2024-02-26T12:38:05;99845.59;;;9.99;64.88
36092;BME280;22147;52.388;13.390;2024-02-26T12:40:35;99851.72;;;10.05;64.85
36092;BME280;22147;52.388;13.390;2024-02-26T12:43:06;99848.16;;;10.04;65.09
36092;BME280;22147;52.388;13.390;2024-02-26T12:45:43;99835.53;;;10.19;64.11
36092;BME280;22147;52.388;13.390;2024-02-26T12:48:17;99838.19;;;10.03;62.23
36092;BME280;22147;52.388;13.390;2024-02-26T12:50:48;99834.75;;;10.06;62.21
36092;BME280;22147;52.388;13.390;2024-02-26T12:53:19;99837.19;;;10.08;62.57
36092;BME280;22147;52.388;13.390;2024-02-26T12:55:50;99844.31;;;10.09;62.37
36092;BME280;22147;52.388;13.390;2024-02-26T12:58:22;99835.88;;;10.17;62.48
36092;BME280;22147;52.388;13.390;2024-02-26T13:00:55;99836.59;;;10.27;60.22
36092;BME280;22147;52.388;13.390;2024-02-26T13:03:28;99833.03;;;10.38;60.02
36092;BME280;22147;52.388;13.390;2024-02-26T13:05:59;99840.31;;;10.31;60.04
36092;BME280;22147;52.388;13.390;2024-02-26T13:08:28;99830.81;;;10.19;58.59
36092;BME280;22147;52.388;13.390;2024-02-26T13:11:01;99836.91;;;10.01;60.05